sensor_id;sensor_type;location;lat;lon;timestamp;temperature;humidity
16976;DHT22;8604;48.148;-1.786;2024-03-08T00:00:20;8.60;99.90
16976;DHT22;8604;48.148;-1.786;2024-03-08T00:02:48;8.60;99.90
16976;DHT22;8604;48.148;-1.786;2024-03-08T00:05:18;8.60;99.90
16976;DHT22;8604;48.148;-1.786;2024-03-08T00:07:47;8.60;99.90
16976;DHT22;8604;48.148;-1.786;2024-03-08T00:10:17;8.50;99.90
16976;DHT22;8604;48.148;-1.786;2024-03-08T00:12:45;8.50;99.90
16976;DHT22;8604;48.148;-1.786;2024-03-08T00:15:15;8.50;99.90
16976;DHT22;8604;48.148;-1.786;2024-03-08T00:17:46;8.50;99.90
16976;DHT22;8604;48.148;-1.786;2024-03-08T00:20:15;8.50;99.90
16976;DHT22;8604;48.148;-1.786;2024-03-08T00:22:45;8.50;99.90
16976;DHT22;8604;48.148;-1.786;2024-03-08T00:25:14;8.50;99.90
16976;DHT22;8604;48.148;-1.786;2024-03-08T00:27:44;8.50;99.90
16976;DHT22;8604;48.148;-1.786;2024-03-08T00:30:16;8.50;99.90
16976;DHT22;8604;48.148;-1.786;2024-03-08T00:32:45;8.40;99.90
16976;DHT22;8604;48.148;-1.786;2024-03-08T00:35:14;8.40;99.90
16976;DHT22;8604;48.148;-1.786;2024-03-08T00:37:42;8.40;99.90
16976;DHT22;8604;48.148;-1.786;2024-03-08T00:40:14;8.40;99.90
16976;DHT22;8604;48.148;-1.786;2024-03-08T00:42:44;8.40;99.90
16976;DHT22;8604;48.148;-1.786;2024-03-08T00:45:12;8.40;99.90
16976;DHT22;8604;48.148;-1.786;2024-03-08T00:47:41;8.40;99.90
16976;DHT22;8604;48.148;-1.786;2024-03-08T00:50:11;8.30;99.90
16976;DHT22;8604;48.148;-1.786;2024-03-08T00:52:40;8.30;99.90
16976;DHT22;8604;48.148;-1.786;2024-03-08T00:55:09;8.30;99.90
16976;DHT22;8604;48.148;-1.786;2024-03-08T00:57:38;8.30;99.90
16976;DHT22;8604;48.148;-1.786;2024-03-08T01:00:09;8.30;99.90
16976;DHT22;8604;48.148;-1.786;2024-03-08T01:02:40;8.30;99.90
16976;DHT22;8604;48.148;-1.786;2024-03-08T01:05:08;8.20;99.90
16976;DHT22;8604;48.148;-1.786;2024-03-08T01:07:37;8.20;99.90
16976;DHT22;8604;48.148;-1.786;2024-03-08T01:10:06;8.20;99.90
16976;DHT22;8604;48.148;-1.786;2024-03-08T01:12:37;8.20;99.90
16976;DHT22;8604;48.148;-1.786;2024-03-08T01:15:08;8.10;99.90
16976;DHT22;8604;48.148;-1.786;2024-03-08T01:17:37;8.10;99.90
16976;DHT22;8604;48.148;-1.786;2024-03-08T01:20:07;8.10;99.90
16976;DHT22;8604;48.148;-1.786;2024-03-08T01:22:38;8.10;99.90
16976;DHT22;8604;48.148;-1.786;2024-03-08T01:25:07;8.10;99.90
16976;DHT22;8604;48.148;-1.786;2024-03-08T01:27:35;8.10;99.90
16976;DHT22;8604;48.148;-1.786;2024-03-08T01:30:05;8.10;99.90
16976;DHT22;8604;48.148;-1.786;2024-03-08T01:32:38;8.00;99.90
16976;DHT22;8604;48.148;-1.786;2024-03-08T01:35:07;8.00;99.90
16976;DHT22;8604;48.148;-1.786;2024-03-08T01:37:37;8.00;99.90
16976;DHT22;8604;48.148;-1.786;2024-03-08T01:40:07;8.00;99.90
16976;DHT22;8604;48.148;-1.786;2024-03-08T01:42:36;8.00;99.90
16976;DHT22;8604;48.148;-1.786;2024-03-08T01:45:06;8.00;99.90
16976;DHT22;8604;48.148;-1.786;2024-03-08T01:47:35;8.00;99.90
16976;DHT22;8604;48.148;-1.786;2024-03-08T01:50:06;8.00;99.90
16976;DHT22;8604;48.148;-1.786;2024-03-08T01:52:36;8.00;99.90
16976;DHT22;8604;48.148;-1.786;2024-03-08T01:55:05;8.00;99.90
16976;DHT22;8604;48.148;-1.786;2024-03-08T01:57:35;8.00;99.90
16976;DHT22;8604;48.148;-1.786;2024-03-08T02:00:06;8.00;99.90
16976;DHT22;8604;48.148;-1.786;2024-03-08T02:02:37;8.00;99.90
16976;DHT22;8604;48.148;-1.786;2024-03-08T02:05:08;8.00;99.90
16976;DHT22;8604;48.148;-1.786;2024-03-08T02:07:37;8.00;99.90
16976;DHT22;8604;48.148;-1.786;2024-03-08T02:10:07;8.00;99.90
16976;DHT22;8604;48.148;-1.786;2024-03-08T02:12:36;7.90;99.90
16976;DHT22;8604;48.148;-1.786;2024-03-08T02:15:05;7.90;99.90
16976;DHT22;8604;48.148;-1.786;2024-03-08T02:17:34;7.90;99.90
16976;DHT22;8604;48.148;-1.786;2024-03-08T02:20:03;7.90;99.90
16976;DHT22;8604;48.148;-1.786;2024-03-08T02:22:34;7.90;99.90
16976;DHT22;8604;48.148;-1.786;2024-03-08T02:25:03;7.80;99.90
16976;DHT22;8604;48.148;-1.786;2024-03-08T02:27:32;7.80;99.90
16976;DHT22;8604;48.148;-1.786;2024-03-08T02:30:01;7.80;99.90
16976;DHT22;8604;48.148;-1.786;2024-03-08T02:32:29;7.80;99.90
16976;DHT22;8604;48.148;-1.786;2024-03-08T02:35:00;7.80;99.90
16976;DHT22;8604;48.148;-1.786;2024-03-08T02:37:28;7.80;99.90
16976;DHT22;8604;48.148;-1.786;2024-03-08T02:39:58;7.80;99.90
16976;DHT22;8604;48.148;-1.786;2024-03-08T02:42:27;7.80;99.90
16976;DHT22;8604;48.148;-1.786;2024-03-08T02:44:55;7.80;99.90
16976;DHT22;8604;48.148;-1.786;2024-03-08T02:47:25;7.80;99.90
16976;DHT22;8604;48.148;-1.786;2024-03-08T02:49:54;7.80;99.90
16976;DHT22;8604;48.148;-1.786;2024-03-08T02:52:22;7.70;99.90
16976;DHT22;8604;48.148;-1.786;2024-03-08T02:54:51;7.70;99.90
16976;DHT22;8604;48.148;-1.786;2024-03-08T02:57:21;7.70;99.90
16976;DHT22;8604;48.148;-1.786;2024-03-08T02:59:50;7.60;99.90
16976;DHT22;8604;48.148;-1.786;2024-03-08T03:02:18;7.60;99.90
16976;DHT22;8604;48.148;-1.786;2024-03-08T03:04:47;7.60;99.90
16976;DHT22;8604;48.148;-1.786;2024-03-08T03:07:15;7.60;99.90
16976;DHT22;8604;48.148;-1.786;2024-03-08T03:09:43;7.60;99.90
16976;DHT22;8604;48.148;-1.786;2024-03-08T03:12:12;7.60;99.90
16976;DHT22;8604;48.148;-1.786;2024-03-08T03:14:42;7.60;99.90
16976;DHT22;8604;48.148;-1.786;2024-03-08T03:17:11;7.50;99.90
16976;DHT22;8604;48.148;-1.786;2024-03-08T03:19:40;7.50;99.90
16976;DHT22;8604;48.148;-1.786;2024-03-08T03:22:09;7.50;99.90
16976;DHT22;8604;48.148;-1.786;2024-03-08T03:24:37;7.40;99.90
16976;DHT22;8604;48.148;-1.786;2024-03-08T03:27:06;7.40;99.90
16976;DHT22;8604;48.148;-1.786;2024-03-08T03:29:38;7.40;99.90
16976;DHT22;8604;48.148;-1.786;2024-03-08T03:32:08;7.40;99.90
16976;DHT22;8604;48.148;-1.786;2024-03-08T03:34:37;7.40;99.90
16976;DHT22;8604;48.148;-1.786;2024-03-08T03:37:05;7.30;99.90
16976;DHT22;8604;48.148;-1.786;2024-03-08T03:39:35;7.30;99.90
16976;DHT22;8604;48.148;-1.786;2024-03-08T03:42:15;7.30;99.90
16976;DHT22;8604;48.148;-1.786;2024-03-08T03:44:44;7.30;99.90
16976;DHT22;8604;48.148;-1.786;2024-03-08T03:47:15;7.30;99.90
16976;DHT22;8604;48.148;-1.786;2024-03-08T03:49:44;7.30;99.90
16976;DHT22;8604;48.148;-1.786;2024-03-08T03:52:12;7.30;99.90
16976;DHT22;8604;48.148;-1.786;2024-03-08T03:54:42;7.30;99.90
16976;DHT22;8604;48.148;-1.786;2024-03-08T03:57:11;7.30;99.90
16976;DHT22;8604;48.148;-1.786;2024-03-08T03:59:40;7.20;99.90
16976;DHT22;8604;48.148;-1.786;2024-03-08T04:02:09;7.30;99.90
16976;DHT22;8604;48.148;-1.786;2024-03-08T04:04:38;7.20;99.90
16976;DHT22;8604;48.148;-1.786;2024-03-08T04:07:07;7.20;99.90
16976;DHT22;8604;48.148;-1.786;2024-03-08T04:09:36;7.20;99.90
16976;DHT22;8604;48.148;-1.786;2024-03-08T04:12:05;7.20;99.90
16976;DHT22;8604;48.148;-1.786;2024-03-08T04:14:34;7.20;99.90
16976;DHT22;8604;48.148;-1.786;2024-03-08T04:17:02;7.20;99.90
16976;DHT22;8604;48.148;-1.786;2024-03-08T04:19:33;7.20;99.90
16976;DHT22;8604;48.148;-1.786;2024-03-08T04:22:03;7.10;99.90
16976;DHT22;8604;48.148;-1.786;2024-03-08T04:24:31;7.20;99.90
16976;DHT22;8604;48.148;-1.786;2024-03-08T04:27:00;7.10;99.90
16976;DHT22;8604;48.148;-1.786;2024-03-08T04:29:28;7.10;99.90
16976;DHT22;8604;48.148;-1.786;2024-03-08T04:31:57;7.10;99.90
16976;DHT22;8604;48.148;-1.786;2024-03-08T04:34:25;7.10;99.90
16976;DHT22;8604;48.148;-1.786;2024-03-08T04:36:57;7.10;99.90
16976;DHT22;8604;48.148;-1.786;2024-03-08T04:39:27;7.10;99.90
16976;DHT22;8604;48.148;-1.786;2024-03-08T04:41:57;7.00;99.90
16976;DHT22;8604;48.148;-1.786;2024-03-08T04:44:32;7.00;99.90
16976;DHT22;8604;48.148;-1.786;2024-03-08T04:47:01;7.00;99.90
16976;DHT22;8604;48.148;-1.786;2024-03-08T04:49:30;7.00;99.90
16976;DHT22;8604;48.148;-1.786;2024-03-08T04:51:58;7.00;99.90
16976;DHT22;8604;48.148;-1.786;2024-03-08T04:54:28;7.00;99.90
16976;DHT22;8604;48.148;-1.786;2024-03-08T04:56:56;7.00;99.90
16976;DHT22;8604;48.148;-1.786;2024-03-08T04:59:27;7.00;99.90
16976;DHT22;8604;48.148;-1.786;2024-03-08T05:01:56;7.00;99.90
16976;DHT22;8604;48.148;-1.786;2024-03-08T05:04:24;7.00;99.90
16976;DHT22;8604;48.148;-1.786;2024-03-08T05:06:52;6.90;99.90
16976;DHT22;8604;48.148;-1.786;2024-03-08T05:09:21;6.90;99.90
16976;DHT22;8604;48.148;-1.786;2024-03-08T05:11:52;6.90;99.90
16976;DHT22;8604;48.148;-1.786;2024-03-08T05:14:20;6.90;99.90
16976;DHT22;8604;48.148;-1.786;2024-03-08T05:16:49;6.90;99.90
16976;DHT22;8604;48.148;-1.786;2024-03-08T05:19:18;7.00;99.90
16976;DHT22;8604;48.148;-1.786;2024-03-08T05:21:47;6.90;99.90
16976;DHT22;8604;48.148;-1.786;2024-03-08T05:24:17;6.90;99.90
16976;DHT22;8604;48.148;-1.786;2024-03-08T05:26:46;6.90;99.90
16976;DHT22;8604;48.148;-1.786;2024-03-08T05:29:16;6.90;99.90
16976;DHT22;8604;48.148;-1.786;2024-03-08T05:31:47;6.90;99.90
16976;DHT22;8604;48.148;-1.786;2024-03-08T05:34:16;6.90;99.90
16976;DHT22;8604;48.148;-1.786;2024-03-08T05:36:44;6.90;99.90
16976;DHT22;8604;48.148;-1.786;2024-03-08T05:39:13;6.90;99.90
16976;DHT22;8604;48.148;-1.786;2024-03-08T05:41:42;6.80;99.90
16976;DHT22;8604;48.148;-1.786;2024-03-08T05:44:11;6.80;99.90
16976;DHT22;8604;48.148;-1.786;2024-03-08T05:46:41;6.90;99.90
16976;DHT22;8604;48.148;-1.786;2024-03-08T05:49:10;6.80;99.90
16976;DHT22;8604;48.148;-1.786;2024-03-08T05:51:40;6.80;99.90
16976;DHT22;8604;48.148;-1.786;2024-03-08T05:54:09;6.80;99.90
16976;DHT22;8604;48.148;-1.786;2024-03-08T05:56:42;6.80;99.90
16976;DHT22;8604;48.148;-1.786;2024-03-08T05:59:12;6.80;99.90
16976;DHT22;8604;48.148;-1.786;2024-03-08T06:01:42;6.70;99.90
16976;DHT22;8604;48.148;-1.786;2024-03-08T06:04:10;6.70;99.90
16976;DHT22;8604;48.148;-1.786;2024-03-08T06:06:39;6.70;99.90
16976;DHT22;8604;48.148;-1.786;2024-03-08T06:09:08;6.70;99.90
16976;DHT22;8604;48.148;-1.786;2024-03-08T06:11:39;6.70;99.90
16976;DHT22;8604;48.148;-1.786;2024-03-08T06:14:09;6.70;99.90
16976;DHT22;8604;48.148;-1.786;2024-03-08T06:16:38;6.70;99.90
16976;DHT22;8604;48.148;-1.786;2024-03-08T06:19:08;6.70;99.90
16976;DHT22;8604;48.148;-1.786;2024-03-08T06:21:36;6.70;99.90
16976;DHT22;8604;48.148;-1.786;2024-03-08T06:24:05;6.70;99.90
16976;DHT22;8604;48.148;-1.786;2024-03-08T06:26:33;6.70;99.90
16976;DHT22;8604;48.148;-1.786;2024-03-08T06:29:05;6.80;99.90
16976;DHT22;8604;48.148;-1.786;2024-03-08T06:31:34;6.80;99.90
16976;DHT22;8604;48.148;-1.786;2024-03-08T06:34:08;6.80;99.90
16976;DHT22;8604;48.148;-1.786;2024-03-08T06:36:36;6.70;99.90
16976;DHT22;8604;48.148;-1.786;2024-03-08T06:39:06;6.80;99.90
16976;DHT22;8604;48.148;-1.786;2024-03-08T06:41:37;6.80;99.90
16976;DHT22;8604;48.148;-1.786;2024-03-08T06:44:06;6.80;99.90
16976;DHT22;8604;48.148;-1.786;2024-03-08T06:46:37;6.80;99.90
16976;DHT22;8604;48.148;-1.786;2024-03-08T06:49:09;6.80;99.90
16976;DHT22;8604;48.148;-1.786;2024-03-08T06:51:39;6.80;99.90
16976;DHT22;8604;48.148;-1.786;2024-03-08T06:54:13;6.70;99.90
16976;DHT22;8604;48.148;-1.786;2024-03-08T06:56:55;6.70;99.90
16976;DHT22;8604;48.148;-1.786;2024-03-08T06:59:25;6.70;99.90
16976;DHT22;8604;48.148;-1.786;2024-03-08T07:01:55;6.70;99.90
16976;DHT22;8604;48.148;-1.786;2024-03-08T07:04:28;6.80;99.90
16976;DHT22;8604;48.148;-1.786;2024-03-08T07:06:58;6.80;99.90
16976;DHT22;8604;48.148;-1.786;2024-03-08T07:09:27;6.80;99.90
16976;DHT22;8604;48.148;-1.786;2024-03-08T07:11:55;6.80;99.90
16976;DHT22;8604;48.148;-1.786;2024-03-08T07:14:57;6.80;99.90
16976;DHT22;8604;48.148;-1.786;2024-03-08T07:17:28;6.80;99.90
16976;DHT22;8604;48.148;-1.786;2024-03-08T07:19:58;6.80;99.90
16976;DHT22;8604;48.148;-1.786;2024-03-08T07:22:29;6.80;99.90
16976;DHT22;8604;48.148;-1.786;2024-03-08T07:24:58;6.80;99.90
16976;DHT22;8604;48.148;-1.786;2024-03-08T07:27:51;6.80;99.90
16976;DHT22;8604;48.148;-1.786;2024-03-08T07:30:22;6.80;99.90
16976;DHT22;8604;48.148;-1.786;2024-03-08T07:33:14;6.90;99.90
16976;DHT22;8604;48.148;-1.786;2024-03-08T07:35:47;6.90;99.90
16976;DHT22;8604;48.148;-1.786;2024-03-08T07:38:28;7.00;99.90
16976;DHT22;8604;48.148;-1.786;2024-03-08T07:41:25;7.00;99.90
16976;DHT22;8604;48.148;-1.786;2024-03-08T07:44:05;7.00;99.90
16976;DHT22;8604;48.148;-1.786;2024-03-08T07:46:41;7.00;99.90
16976;DHT22;8604;48.148;-1.786;2024-03-08T07:49:10;7.10;99.90
16976;DHT22;8604;48.148;-1.786;2024-03-08T07:51:42;7.10;99.90
16976;DHT22;8604;48.148;-1.786;2024-03-08T07:54:35;7.20;99.90
16976;DHT22;8604;48.148;-1.786;2024-03-08T07:57:18;7.20;99.90
16976;DHT22;8604;48.148;-1.786;2024-03-08T07:59:57;7.20;99.90
16976;DHT22;8604;48.148;-1.786;2024-03-08T08:02:36;7.30;99.90
16976;DHT22;8604;48.148;-1.786;2024-03-08T08:05:07;7.30;99.90
16976;DHT22;8604;48.148;-1.786;2024-03-08T08:07:39;7.40;99.90
16976;DHT22;8604;48.148;-1.786;2024-03-08T08:10:11;7.50;99.90
16976;DHT22;8604;48.148;-1.786;2024-03-08T08:12:45;7.50;99.90
16976;DHT22;8604;48.148;-1.786;2024-03-08T08:15:14;7.60;99.90
16976;DHT22;8604;48.148;-1.786;2024-03-08T08:17:43;7.60;99.90
16976;DHT22;8604;48.148;-1.786;2024-03-08T08:20:12;7.70;99.90
16976;DHT22;8604;48.148;-1.786;2024-03-08T08:22:42;7.70;99.90
16976;DHT22;8604;48.148;-1.786;2024-03-08T08:25:11;7.80;99.90
16976;DHT22;8604;48.148;-1.786;2024-03-08T08:27:41;7.90;99.90
16976;DHT22;8604;48.148;-1.786;2024-03-08T08:30:11;7.90;99.90
16976;DHT22;8604;48.148;-1.786;2024-03-08T08:32:39;8.10;99.90
16976;DHT22;8604;48.148;-1.786;2024-03-08T08:35:09;8.10;99.90
16976;DHT22;8604;48.148;-1.786;2024-03-08T08:37:39;8.20;99.90
16976;DHT22;8604;48.148;-1.786;2024-03-08T08:40:10;8.30;99.90
16976;DHT22;8604;48.148;-1.786;2024-03-08T08:42:43;8.40;99.90
16976;DHT22;8604;48.148;-1.786;2024-03-08T08:45:16;8.50;99.90
16976;DHT22;8604;48.148;-1.786;2024-03-08T08:47:51;8.50;99.90
16976;DHT22;8604;48.148;-1.786;2024-03-08T08:50:22;8.60;99.90
16976;DHT22;8604;48.148;-1.786;2024-03-08T08:52:51;8.70;99.90
16976;DHT22;8604;48.148;-1.786;2024-03-08T08:55:22;8.70;99.90
16976;DHT22;8604;48.148;-1.786;2024-03-08T08:57:53;8.80;99.90
16976;DHT22;8604;48.148;-1.786;2024-03-08T09:00:23;9.00;99.90
16976;DHT22;8604;48.148;-1.786;2024-03-08T09:02:55;9.00;99.90
16976;DHT22;8604;48.148;-1.786;2024-03-08T09:05:26;9.10;99.90
16976;DHT22;8604;48.148;-1.786;2024-03-08T09:07:54;9.20;99.90
16976;DHT22;8604;48.148;-1.786;2024-03-08T09:10:25;9.30;99.90
16976;DHT22;8604;48.148;-1.786;2024-03-08T09:12:57;9.40;99.90
16976;DHT22;8604;48.148;-1.786;2024-03-08T09:15:26;9.50;99.90
16976;DHT22;8604;48.148;-1.786;2024-03-08T09:17:56;9.60;99.90
16976;DHT22;8604;48.148;-1.786;2024-03-08T09:20:26;9.70;99.90
16976;DHT22;8604;48.148;-1.786;2024-03-08T09:22:55;9.70;99.90
16976;DHT22;8604;48.148;-1.786;2024-03-08T09:25:25;9.80;99.90
16976;DHT22;8604;48.148;-1.786;2024-03-08T09:27:55;10.00;99.90
16976;DHT22;8604;48.148;-1.786;2024-03-08T09:30:24;10.10;99.90
16976;DHT22;8604;48.148;-1.786;2024-03-08T09:32:52;10.30;99.90
16976;DHT22;8604;48.148;-1.786;2024-03-08T09:35:24;10.50;99.90
16976;DHT22;8604;48.148;-1.786;2024-03-08T09:37:53;10.50;99.90
16976;DHT22;8604;48.148;-1.786;2024-03-08T09:40:24;10.50;99.90
16976;DHT22;8604;48.148;-1.786;2024-03-08T09:42:55;10.70;99.90
16976;DHT22;8604;48.148;-1.786;2024-03-08T09:45:25;10.80;99.90
16976;DHT22;8604;48.148;-1.786;2024-03-08T09:47:55;10.90;99.90
16976;DHT22;8604;48.148;-1.786;2024-03-08T09:50:24;11.10;99.90
16976;DHT22;8604;48.148;-1.786;2024-03-08T09:52:55;11.20;99.90
16976;DHT22;8604;48.148;-1.786;2024-03-08T09:55:27;11.20;99.90
16976;DHT22;8604;48.148;-1.786;2024-03-08T09:58:02;11.30;99.90
16976;DHT22;8604;48.148;-1.786;2024-03-08T10:01:04;11.50;99.90
16976;DHT22;8604;48.148;-1.786;2024-03-08T10:03:33;11.60;99.90
16976;DHT22;8604;48.148;-1.786;2024-03-08T10:06:03;11.70;99.90
16976;DHT22;8604;48.148;-1.786;2024-03-08T10:08:33;11.90;99.90
16976;DHT22;8604;48.148;-1.786;2024-03-08T10:11:03;12.00;99.90
16976;DHT22;8604;48.148;-1.786;2024-03-08T10:13:32;12.00;99.90
16976;DHT22;8604;48.148;-1.786;2024-03-08T10:16:01;12.10;99.90
16976;DHT22;8604;48.148;-1.786;2024-03-08T10:18:30;12.10;99.90
16976;DHT22;8604;48.148;-1.786;2024-03-08T10:21:05;12.20;99.90
16976;DHT22;8604;48.148;-1.786;2024-03-08T10:23:37;12.40;99.90
16976;DHT22;8604;48.148;-1.786;2024-03-08T10:26:14;12.40;99.90
16976;DHT22;8604;48.148;-1.786;2024-03-08T10:28:44;12.60;99.90
16976;DHT22;8604;48.148;-1.786;2024-03-08T10:31:15;12.70;99.90
16976;DHT22;8604;48.148;-1.786;2024-03-08T10:33:45;12.70;99.90
16976;DHT22;8604;48.148;-1.786;2024-03-08T10:36:14;12.60;99.90
16976;DHT22;8604;48.148;-1.786;2024-03-08T10:38:44;12.70;99.90
16976;DHT22;8604;48.148;-1.786;2024-03-08T10:41:16;12.90;99.90
16976;DHT22;8604;48.148;-1.786;2024-03-08T10:44:10;13.00;99.90
16976;DHT22;8604;48.148;-1.786;2024-03-08T10:46:49;13.20;99.90
16976;DHT22;8604;48.148;-1.786;2024-03-08T10:49:26;13.40;99.90
16976;DHT22;8604;48.148;-1.786;2024-03-08T10:51:56;13.60;99.90
16976;DHT22;8604;48.148;-1.786;2024-03-08T10:54:26;13.80;99.90
16976;DHT22;8604;48.148;-1.786;2024-03-08T10:57:17;13.90;99.90
16976;DHT22;8604;48.148;-1.786;2024-03-08T10:59:47;14.00;99.90
16976;DHT22;8604;48.148;-1.786;2024-03-08T11:02:17;14.10;99.90
16976;DHT22;8604;48.148;-1.786;2024-03-08T11:04:47;14.30;99.90
16976;DHT22;8604;48.148;-1.786;2024-03-08T11:07:16;14.10;99.90
16976;DHT22;8604;48.148;-1.786;2024-03-08T11:09:48;14.20;99.90
16976;DHT22;8604;48.148;-1.786;2024-03-08T11:12:22;14.10;99.90
16976;DHT22;8604;48.148;-1.786;2024-03-08T11:14:54;14.20;99.90
16976;DHT22;8604;48.148;-1.786;2024-03-08T11:17:45;14.10;99.90
16976;DHT22;8604;48.148;-1.786;2024-03-08T11:20:16;14.10;99.90
16976;DHT22;8604;48.148;-1.786;2024-03-08T11:22:49;14.00;99.90
16976;DHT22;8604;48.148;-1.786;2024-03-08T11:25:33;14.00;99.90
16976;DHT22;8604;48.148;-1.786;2024-03-08T11:28:23;13.90;99.90
16976;DHT22;8604;48.148;-1.786;2024-03-08T11:31:24;14.20;99.90
16976;DHT22;8604;48.148;-1.786;2024-03-08T11:33:54;14.50;99.90
16976;DHT22;8604;48.148;-1.786;2024-03-08T11:36:24;14.60;99.90
16976;DHT22;8604;48.148;-1.786;2024-03-08T11:38:53;14.60;99.90
16976;DHT22;8604;48.148;-1.786;2024-03-08T11:41:24;14.70;99.90
16976;DHT22;8604;48.148;-1.786;2024-03-08T11:44:04;14.70;99.90
16976;DHT22;8604;48.148;-1.786;2024-03-08T11:46:34;14.80;99.90
16976;DHT22;8604;48.148;-1.786;2024-03-08T11:49:02;14.80;99.90
16976;DHT22;8604;48.148;-1.786;2024-03-08T11:51:33;14.80;99.90
16976;DHT22;8604;48.148;-1.786;2024-03-08T11:54:02;14.80;99.90
16976;DHT22;8604;48.148;-1.786;2024-03-08T11:56:30;15.00;99.90
16976;DHT22;8604;48.148;-1.786;2024-03-08T11:58:59;15.00;99.90
16976;DHT22;8604;48.148;-1.786;2024-03-08T12:01:30;14.90;99.90
16976;DHT22;8604;48.148;-1.786;2024-03-08T12:03:59;14.80;99.90
16976;DHT22;8604;48.148;-1.786;2024-03-08T12:06:37;14.60;99.90
16976;DHT22;8604;48.148;-1.786;2024-03-08T12:09:11;14.50;99.90
16976;DHT22;8604;48.148;-1.786;2024-03-08T12:11:42;14.40;99.90
16976;DHT22;8604;48.148;-1.786;2024-03-08T12:14:14;14.20;99.90
16976;DHT22;8604;48.148;-1.786;2024-03-08T12:16:44;14.10;99.90
16976;DHT22;8604;48.148;-1.786;2024-03-08T12:19:12;13.90;99.90
16976;DHT22;8604;48.148;-1.786;2024-03-08T12:21:42;13.80;99.90
16976;DHT22;8604;48.148;-1.786;2024-03-08T12:24:16;13.80;99.90
16976;DHT22;8604;48.148;-1.786;2024-03-08T12:26:46;13.80;99.90
16976;DHT22;8604;48.148;-1.786;2024-03-08T12:29:17;13.80;99.90
16976;DHT22;8604;48.148;-1.786;2024-03-08T12:31:51;13.80;99.90
16976;DHT22;8604;48.148;-1.786;2024-03-08T12:34:21;13.70;99.90
16976;DHT22;8604;48.148;-1.786;2024-03-08T12:36:51;13.70;99.90
16976;DHT22;8604;48.148;-1.786;2024-03-08T12:39:22;13.70;99.90
16976;DHT22;8604;48.148;-1.786;2024-03-08T12:41:54;13.70;99.90
16976;DHT22;8604;48.148;-1.786;2024-03-08T12:44:24;13.70;99.90
16976;DHT22;8604;48.148;-1.786;2024-03-08T12:46:54;13.70;99.90
16976;DHT22;8604;48.148;-1.786;2024-03-08T12:49:26;13.80;99.90
16976;DHT22;8604;48.148;-1.786;2024-03-08T12:51:55;13.80;99.90
16976;DHT22;8604;48.148;-1.786;2024-03-08T12:54:24;13.80;99.90
16976;DHT22;8604;48.148;-1.786;2024-03-08T12:56:53;13.80;99.90
16976;DHT22;8604;48.148;-1.786;2024-03-08T12:59:27;13.80;99.90
16976;DHT22;8604;48.148;-1.786;2024-03-08T13:01:57;13.90;99.90
16976;DHT22;8604;48.148;-1.786;2024-03-08T13:04:28;14.00;99.90
16976;DHT22;8604;48.148;-1.786;2024-03-08T13:07:27;14.00;99.90
16976;DHT22;8604;48.148;-1.786;2024-03-08T13:09:59;13.90;99.90
16976;DHT22;8604;48.148;-1.786;2024-03-08T13:12:48;14.00;99.90
16976;DHT22;8604;48.148;-1.786;2024-03-08T13:15:20;14.10;99.90
16976;DHT22;8604;48.148;-1.786;2024-03-08T13:17:51;14.10;99.90
16976;DHT22;8604;48.148;-1.786;2024-03-08T13:20:20;14.00;99.90
16976;DHT22;8604;48.148;-1.786;2024-03-08T13:22:59;14.10;99.90
16976;DHT22;8604;48.148;-1.786;2024-03-08T13:25:32;14.10;99.90
16976;DHT22;8604;48.148;-1.786;2024-03-08T13:28:01;14.10;99.90
16976;DHT22;8604;48.148;-1.786;2024-03-08T13:30:30;14.10;99.90
16976;DHT22;8604;48.148;-1.786;2024-03-08T13:33:00;14.10;99.90
16976;DHT22;8604;48.148;-1.786;2024-03-08T13:35:32;14.20;99.90
16976;DHT22;8604;48.148;-1.786;2024-03-08T13:38:01;14.30;99.90
16976;DHT22;8604;48.148;-1.786;2024-03-08T13:40:32;14.40;99.90
16976;DHT22;8604;48.148;-1.786;2024-03-08T13:43:01;14.40;99.90
16976;DHT22;8604;48.148;-1.786;2024-03-08T13:45:31;14.50;99.90
16976;DHT22;8604;48.148;-1.786;2024-03-08T13:48:05;14.50;99.90
16976;DHT22;8604;48.148;-1.786;2024-03-08T13:50:34;14.40;99.90
16976;DHT22;8604;48.148;-1.786;2024-03-08T13:53:03;14.40;99.90
16976;DHT22;8604;48.148;-1.786;2024-03-08T13:55:32;14.30;99.90
16976;DHT22;8604;48.148;-1.786;2024-03-08T13:58:00;14.30;99.90
16976;DHT22;8604;48.148;-1.786;2024-03-08T14:00:29;14.30;99.90
16976;DHT22;8604;48.148;-1.786;2024-03-08T14:03:01;14.30;99.90
16976;DHT22;8604;48.148;-1.786;2024-03-08T14:05:34;14.30;99.90
16976;DHT22;8604;48.148;-1.786;2024-03-08T14:08:03;14.30;99.90
16976;DHT22;8604;48.148;-1.786;2024-03-08T14:10:31;14.30;99.90
16976;DHT22;8604;48.148;-1.786;2024-03-08T14:13:00;14.30;99.90
16976;DHT22;8604;48.148;-1.786;2024-03-08T14:15:30;14.30;99.90
16976;DHT22;8604;48.148;-1.786;2024-03-08T14:17:58;14.30;99.90
16976;DHT22;8604;48.148;-1.786;2024-03-08T14:20:27;14.30;99.90
16976;DHT22;8604;48.148;-1.786;2024-03-08T14:23:00;14.30;99.90
16976;DHT22;8604;48.148;-1.786;2024-03-08T14:25:29;14.30;99.90
16976;DHT22;8604;48.148;-1.786;2024-03-08T14:27:57;14.20;99.90
16976;DHT22;8604;48.148;-1.786;2024-03-08T14:30:31;14.20;99.90
16976;DHT22;8604;48.148;-1.786;2024-03-08T14:33:08;14.20;99.90
16976;DHT22;8604;48.148;-1.786;2024-03-08T14:35:37;14.20;99.90
16976;DHT22;8604;48.148;-1.786;2024-03-08T14:38:07;14.20;99.90
16976;DHT22;8604;48.148;-1.786;2024-03-08T14:40:37;14.20;99.90
16976;DHT22;8604;48.148;-1.786;2024-03-08T14:43:08;14.30;99.90
16976;DHT22;8604;48.148;-1.786;2024-03-08T14:45:37;14.30;99.90
16976;DHT22;8604;48.148;-1.786;2024-03-08T14:48:07;14.20;99.90
16976;DHT22;8604;48.148;-1.786;2024-03-08T14:54:32;14.30;99.90
16976;DHT22;8604;48.148;-1.786;2024-03-08T14:57:00;14.30;99.90
16976;DHT22;8604;48.148;-1.786;2024-03-08T14:59:30;14.20;99.90
16976;DHT22;8604;48.148;-1.786;2024-03-08T15:01:58;14.30;99.90
16976;DHT22;8604;48.148;-1.786;2024-03-08T15:04:29;14.10;99.90
16976;DHT22;8604;48.148;-1.786;2024-03-08T15:06:57;14.00;99.90
16976;DHT22;8604;48.148;-1.786;2024-03-08T15:09:26;14.10;99.90
16976;DHT22;8604;48.148;-1.786;2024-03-08T15:11:56;14.00;99.90
16976;DHT22;8604;48.148;-1.786;2024-03-08T15:14:25;14.00;99.90
16976;DHT22;8604;48.148;-1.786;2024-03-08T15:16:54;14.00;99.90
16976;DHT22;8604;48.148;-1.786;2024-03-08T15:19:22;14.00;99.90
16976;DHT22;8604;48.148;-1.786;2024-03-08T15:21:53;13.90;99.90
16976;DHT22;8604;48.148;-1.786;2024-03-08T15:24:23;13.90;99.90
16976;DHT22;8604;48.148;-1.786;2024-03-08T15:26:52;13.80;99.90
16976;DHT22;8604;48.148;-1.786;2024-03-08T15:29:24;13.80;99.90
16976;DHT22;8604;48.148;-1.786;2024-03-08T15:31:54;13.80;99.90
16976;DHT22;8604;48.148;-1.786;2024-03-08T15:34:23;13.80;99.90
16976;DHT22;8604;48.148;-1.786;2024-03-08T15:36:53;13.80;99.90
16976;DHT22;8604;48.148;-1.786;2024-03-08T15:39:25;13.70;99.90
16976;DHT22;8604;48.148;-1.786;2024-03-08T15:41:53;13.70;99.90
16976;DHT22;8604;48.148;-1.786;2024-03-08T15:44:23;13.60;99.90
16976;DHT22;8604;48.148;-1.786;2024-03-08T15:46:54;13.50;99.90
16976;DHT22;8604;48.148;-1.786;2024-03-08T15:49:23;13.40;99.90
16976;DHT22;8604;48.148;-1.786;2024-03-08T15:51:54;13.30;99.90
16976;DHT22;8604;48.148;-1.786;2024-03-08T15:54:22;13.20;99.90
16976;DHT22;8604;48.148;-1.786;2024-03-08T15:56:51;13.10;99.90
16976;DHT22;8604;48.148;-1.786;2024-03-08T15:59:20;13.10;99.90
16976;DHT22;8604;48.148;-1.786;2024-03-08T16:01:49;13.00;99.90
16976;DHT22;8604;48.148;-1.786;2024-03-08T16:04:19;13.00;99.90
16976;DHT22;8604;48.148;-1.786;2024-03-08T16:06:48;12.90;99.90